Latest Coastal Weather Observations for Devonport Airport

IDT60701

Issued at 2:25 pm EST Monday 28 July 2014 (issued every 10 minutes, with the page automatically refreshed every 10 minutes)

About coastal observations | Map of coastal stations | Coastal observations for TAS | Marine services | Other Formats
Station Details ID: 091126 Name: DEVONPORT AIRPORT Lat: -41.17 Lon: 146.43 Height: 8.0 m
Data from the previous 72 hours. | See also: Recent months at Devonport Airport
Date/Time
EST
Temp

°C
Wind Pressure Rain
since 9am
mm
Weather Cloud Vis
km
Sea
Height
m
Swell
Dir
 
Speed
knots
Gust
knots
hPa Trend Height
m
Period
s
Dir
28/02:00pm 13.2 NW 22 27 1007.3 - 4.8 - Partly cloudy 10 - - - -
28/01:30pm 13.4 NW 23 27 1007.2 - 4.8 - Partly cloudy 10 - - - -
28/01:06pm 12.2 NW 21 31 1007.5 - 4.8 - Partly cloudy 10 - - - -
28/01:01pm 12.4 NW 20 25 1007.6 - 4.8 - Partly cloudy 10 - - - -
28/01:00pm 12.4 NW 20 25 1007.7 - 4.8 - Partly cloudy 10 - - - -
28/12:32pm 10.6 NW 23 39 1007.9 - 1.8 - Partly cloudy 4 - - - -
28/12:30pm 12.4 NW 22 28 1008.3 - 1.2 - Partly cloudy 5 - - - -
28/12:23pm 12.9 NW 24 30 1008.3 - 0.6 - Partly cloudy 6 - - - -
28/12:14pm 13.4 NW 25 30 1008.2 - 0.4 - Partly cloudy 10 - - - -
28/12:02pm 13.5 NNW 20 31 1007.9 - 0.4 - Partly cloudy 10 - - - -
28/12:00pm 13.5 NNW 18 25 1008.2 - 0.4 Showers Cloudy 10 - - - -
28/11:30am 13.1 NW 15 19 1009.2 - 0.0 - Partly cloudy 9 - - - -
28/11:27am 13.3 NW 15 20 1009.2 - 0.0 - Partly cloudy 10 - - - -
28/11:20am 13.7 NW 17 21 1009.2 - 0.0 - Partly cloudy 10 - - - -
28/11:00am 13.5 NW 13 17 1009.7 - 0.0 - Partly cloudy 10 - - - -
28/10:55am 13.5 NW 12 17 1009.7 - 0.0 - Partly cloudy 10 - - - -
28/10:30am 12.8 NW 14 21 1009.9 - 0.0 - Partly cloudy 10 - - - -
28/10:00am 12.7 NW 16 21 1010.0 - 0.0 - Partly cloudy 10 - - - -
28/09:33am 12.1 NW 14 17 1010.0 - 0.0 - Partly cloudy 10 - - - -
28/09:30am 12.1 NW 13 17 1009.9 - 0.0 - Partly cloudy 10 - - - -
28/09:00am 12.0 WNW 16 19 1010.2 - 2.8 - Cloudy 10 - - - -
28/08:30am 12.1 WNW 14 17 1010.1 - 2.8 - Partly cloudy 10 - - - -
28/08:00am 12.0 WNW 12 16 1010.1 - 2.8 - Partly cloudy 10 - - - -
28/07:30am 11.6 WNW 13 17 1010.4 - 2.8 - Partly cloudy 10 - - - -
28/07:28am 11.6 WNW 13 17 1010.4 - 2.8 - Partly cloudy 10 - - - -
28/07:26am 11.7 WNW 14 19 1010.4 - 2.8 - Partly cloudy 10 - - - -
28/07:18am 11.6 WNW 16 19 1010.4 - 2.6 - Partly cloudy 7 - - - -
28/07:13am 11.5 W 18 25 1010.4 - 2.6 - Partly cloudy 6 - - - -
28/07:09am 11.8 W 19 25 1010.4 - 2.2 - Partly cloudy 6 - - - -
28/07:03am 12.8 W 19 21 1010.4 - 1.4 - Partly cloudy 10 - - - -
28/07:00am 13.2 NW 21 26 1010.3 - 1.2 - Partly cloudy 10 - - - -
28/06:30am 13.3 NW 20 28 1010.0 - 1.2 - Partly cloudy 10 - - - -
28/06:00am 13.3 NW 22 28 1009.8 - 1.2 - Mostly cloudy 10 - - - -
28/05:30am 13.2 NW 19 25 1009.9 - 1.2 - Partly cloudy 10 - - - -
28/05:00am 13.1 NW 16 21 1010.5 - 1.2 - Partly cloudy 10 - - - -
28/04:30am 12.8 NW 13 18 1010.6 - 1.2 - Partly cloudy 10 - - - -
28/04:00am 12.9 NW 12 14 1011.1 - 1.2 - Cloudy 10 - - - -
28/03:30am 12.7 NW 10 14 1011.2 - 1.2 - Cloudy 10 - - - -
28/03:00am 12.9 NW 11 14 1011.9 - 1.2 - Cloudy 10 - - - -
28/02:30am 12.9 NW 11 15 1012.2 - 1.2 - Cloudy 10 - - - -
28/02:00am 12.9 NW 10 12 1012.6 - 1.2 - Cloudy 10 - - - -
28/01:30am 12.8 NW 9 13 1012.7 - 1.2 - Partly cloudy 10 - - - -
28/01:00am 12.6 NW 8 11 1013.0 - 1.2 - Partly cloudy 10 - - - -
28/12:30am 12.7 NW 9 12 1013.5 - 1.2 - Cloudy 10 - - - -
28/12:00am 12.8 NW 10 13 1014.0 - 1.2 - Cloudy 10 - - - -
 
Date/Time
EST
Temp

°C
Wind Pressure Rain
since 9am
mm
Weather Cloud Vis
km
Sea
Height
m
Swell
Dir
 
Speed
knots
Gust
knots
hPa Trend Height
m
Period
s
Dir
27/11:30pm 12.9 NW 11 15 1014.3 - 1.2 - Cloudy 10 - - - -
27/11:00pm 12.9 NNW 14 17 1014.4 - 1.2 - Partly cloudy 10 - - - -
27/10:30pm 12.9 NNW 16 21 1014.5 - 1.2 - Partly cloudy 10 - - - -
27/10:00pm 12.8 WNW 14 18 1014.9 - 1.2 - Partly cloudy 10 - - - -
27/09:30pm 12.9 NNW 17 21 1014.9 - 1.2 - Partly cloudy 10 - - - -
27/09:00pm 12.8 NNW 19 23 1015.2 - 1.2 Showers Mostly cloudy 10 - - - -
27/08:59pm 12.8 NNW 19 23 1015.1 - 1.2 - Partly cloudy 10 - - - -
27/08:30pm 12.4 WNW 13 16 1015.6 - 1.0 - Partly cloudy 7 - - - -
27/08:02pm 12.7 NW 15 19 1015.7 - 0.0 - Partly cloudy 10 - - - -
27/08:00pm 12.7 NW 15 19 1015.8 - 0.0 - Partly cloudy 10 - - - -
27/07:30pm 12.8 NNW 17 21 1016.0 - 0.0 - Partly cloudy 10 - - - -
27/07:14pm 12.7 NNW 18 23 1016.1 - 0.0 - Partly cloudy 10 - - - -
27/07:00pm 12.6 NNW 18 23 1016.2 - 0.0 - Partly cloudy 10 - - - -
27/06:37pm 12.7 NNW 17 22 1016.0 - 0.0 - Partly cloudy 10 - - - -
27/06:30pm 12.8 NW 17 22 1016.0 - 0.0 - Partly cloudy 10 - - - -
27/06:00pm 12.7 NW 18 23 1016.2 - 0.0 - Cloudy 10 - - - -
27/05:30pm 12.7 NW 15 21 1016.2 - 0.0 - Partly cloudy 10 - - - -
27/05:00pm 12.7 NW 15 20 1016.3 - 0.0 - Partly cloudy 10 - - - -
27/04:30pm 12.7 NW 14 18 1016.3 - 0.0 - Partly cloudy 10 - - - -
27/04:00pm 12.9 NW 16 20 1016.9 - 0.0 - Partly cloudy 10 - - - -
27/03:30pm 13.4 NW 14 17 1017.0 - 0.0 - Partly cloudy 10 - - - -
27/03:00pm 13.4 NW 15 19 1017.1 - 0.0 - Mostly clear 10 - - - -
27/02:30pm 13.4 NW 12 15 1017.0 - 0.0 - - 10 - - - -
27/02:08pm 13.4 NW 12 15 1017.3 - 0.0 - Partly cloudy 10 - - - -
27/02:00pm 13.2 WNW 12 15 1017.7 - 0.0 - Partly cloudy 10 - - - -
27/01:55pm 13.2 WNW 10 15 1017.6 - 0.0 - Partly cloudy 10 - - - -
27/01:30pm 12.5 NW 8 11 1018.2 - 0.0 - Partly cloudy 10 - - - -
27/01:00pm 12.3 NNW 5 6 1018.7 - 0.0 - Partly cloudy 10 - - - -
27/12:30pm 11.6 N 1 4 1019.4 - 0.0 - Partly cloudy 10 - - - -
27/12:25pm 11.6 CALM 0 4 1019.5 - 0.0 - Partly cloudy 10 - - - -
27/12:15pm 11.2 N 1 3 1019.6 - 0.0 - Partly cloudy 10 - - - -
27/12:00pm 11.1 NNE 3 5 1019.9 - 0.0 - Cloudy 10 - - - -
27/11:30am 11.2 N 4 6 1020.4 - 0.0 - Partly cloudy 10 - - - -
27/11:00am 10.3 N 4 5 1020.9 - 0.0 - Partly cloudy 10 - - - -
27/10:30am 10.2 N 3 4 1021.3 - 0.0 - Partly cloudy 10 - - - -
27/10:00am 10.0 CALM 0 0 1021.4 - 0.0 - - 10 - - - -
27/09:30am 8.6 SSE 3 4 1021.7 - 0.0 - - 10 - - - -
27/09:00am 7.1 S 3 4 1022.0 - 0.2 - - 10 - - - -
27/08:30am 5.8 S 5 6 1021.8 - 0.2 - Partly cloudy 10 - - - -
27/08:00am 4.9 S 6 7 1021.9 - 0.2 - Partly cloudy 10 - - - -
27/07:30am 3.9 S 7 9 1021.7 - 0.2 - Partly cloudy 10 - - - -
27/07:00am 3.9 S 6 8 1021.4 - 0.2 - - 10 - - - -
27/06:30am 4.7 SSW 5 7 1021.3 - 0.2 - - 10 - - - -
27/06:00am 4.7 S 6 7 1021.1 - 0.2 - Partly cloudy 10 - - - -
27/05:30am 4.6 S 8 9 1021.0 - 0.2 - - 10 - - - -
27/05:00am 4.4 S 8 9 1020.9 - 0.2 - - 10 - - - -
27/04:30am 4.5 SW 3 5 1021.0 - 0.2 - - 10 - - - -
27/04:00am 4.9 SSE 7 8 1021.1 - 0.2 - - 10 - - - -
27/03:30am 5.1 S 7 9 1021.4 - 0.2 - - 10 - - - -
27/03:00am 5.1 S 8 9 1021.5 - 0.0 - - 10 - - - -
27/02:30am 4.8 S 7 8 1021.5 - 0.0 - - 10 - - - -
27/02:08am 4.9 S 5 7 1021.5 - 0.0 - - 10 - - - -
27/02:00am 5.2 S 7 8 1021.5 - 0.0 - - 7 - - - -
27/01:52am 5.3 S 6 8 1021.4 - 0.0 - - 6 - - - -
27/01:46am 4.9 S 6 8 1021.6 - 0.0 - - 9 - - - -
27/01:30am 5.3 S 6 8 1021.5 - 0.0 - - 2 - - - -
27/01:22am 5.3 SE 6 7 1021.3 - 0.0 - - 6 - - - -
27/01:08am 5.4 SSE 6 7 1021.5 - 0.0 - - 10 - - - -
27/01:00am 5.8 SSE 7 8 1021.6 - 0.0 - Partly cloudy 9 - - - -
27/12:58am 5.8 SSE 7 8 1021.6 - 0.0 - Partly cloudy 6 - - - -
27/12:45am 5.9 S 6 7 1021.7 - 0.0 - Partly cloudy 1 - - - -
27/12:30am 6.2 S 5 5 1021.9 - 0.0 - Cloudy 0.2 - - - -
27/12:00am 6.1 SW 3 4 1022.0 - 0.0 - Partly cloudy 0.2 - - - -
 
Date/Time
EST
Temp

°C
Wind Pressure Rain
since 9am
mm
Weather Cloud Vis
km
Sea
Height
m
Swell
Dir
 
Speed
knots
Gust
knots
hPa Trend Height
m
Period
s
Dir
26/11:54pm 6.3 WSW 4 5 1021.9 - 0.0 - Partly cloudy 0.2 - - - -
26/11:33pm 6.4 SSW 3 4 1022.0 - 0.0 - Partly cloudy 0.7 - - - -
26/11:31pm 7.8 SSW 4 5 1022.0 - 0.0 - - 6 - - - -
26/11:30pm 8.3 S 4 5 1022.0 - 0.0 - - 7 - - - -
26/11:22pm 8.1 S 4 5 1021.9 - 0.0 - - 8 - - - -
26/11:11pm 8.0 SW 5 7 1021.9 - 0.0 - - 6 - - - -
26/11:00pm 8.1 SSW 6 8 1021.9 - 0.0 - - 10 - - - -
26/10:30pm 8.3 SE 4 5 1021.7 - 0.0 - - 8 - - - -
26/10:00pm 8.9 SE 4 5 1021.7 - 0.0 - Partly cloudy 10 - - - -
26/09:30pm 9.1 SSE 5 7 1021.8 - 0.0 - Cloudy 10 - - - -
26/09:00pm 9.2 S 6 7 1021.6 - 0.0 - Cloudy 10 - - - -
26/08:30pm 9.1 CALM 0 0 1021.4 - 0.0 - Partly cloudy 10 - - - -
26/08:00pm 10.7 S 1 3 1021.0 - 0.0 - Cloudy 10 - - - -
26/07:30pm 10.5 SSE 1 3 1021.2 - 0.0 - Cloudy 10 - - - -
26/07:00pm 10.3 W 5 5 1021.1 - 0.0 - Cloudy 10 - - - -
26/06:30pm 10.6 WSW 4 5 1021.1 - 0.0 - - 10 - - - -
26/06:00pm 10.9 W 8 10 1020.9 - 0.0 - - 10 - - - -
26/05:30pm 10.8 W 7 9 1020.6 - 0.0 - - 10 - - - -
26/05:00pm 11.7 WNW 8 10 1020.3 - 0.0 - - 10 - - - -
26/04:30pm 12.0 WNW 7 8 1020.2 - 0.0 - - 10 - - - -
26/04:00pm 12.6 NW 6 8 1020.0 - 0.0 - Cloudy 10 - - - -
26/03:30pm 12.7 NW 5 6 1019.7 - 0.0 - Cloudy 10 - - - -
26/03:00pm 12.8 NW 5 6 1019.7 - 0.0 - Cloudy 10 - - - -
26/02:30pm 12.9 N 6 8 1019.6 - 0.0 - Cloudy 10 - - - -
26/02:00pm 13.4 N 7 8 1019.5 - 0.0 - Cloudy 10 - - - -
26/01:30pm 13.4 N 8 9 1019.4 - 0.0 - Partly cloudy 10 - - - -
26/01:00pm 13.6 N 9 11 1019.6 - 0.0 - Partly cloudy 10 - - - -
26/12:30pm 14.7 SSE 3 6 1019.8 - 0.0 - Partly cloudy 10 - - - -
26/12:00pm 14.1 SSE 5 7 1020.1 - 0.0 - Cloudy 10 - - - -
26/11:30am 13.9 S 6 8 1020.4 - 0.0 - Partly cloudy 10 - - - -
26/11:00am 13.4 SSE 8 10 1020.5 - 0.0 - Partly cloudy 10 - - - -
26/10:30am 13.1 S 8 10 1020.6 - 0.0 - - 10 - - - -
26/10:00am 12.4 S 8 11 1020.5 - 0.0 - - 10 - - - -
26/09:30am 11.3 S 6 9 1020.7 - 0.0 - Partly cloudy 10 - - - -
26/09:00am 11.5 S 7 10 1020.7 - 3.0 - Cloudy 10 - - - -
26/08:35am 10.2 S 6 8 1020.4 - 3.0 - Partly cloudy 10 - - - -
26/08:30am 10.0 S 7 8 1020.4 - 3.0 - Partly cloudy 10 - - - -
26/08:00am 9.7 SSE 6 8 1020.3 - 3.0 - Cloudy 10 - - - -
26/07:37am 9.7 SSE 7 10 1020.1 - 3.0 - Partly cloudy 10 - - - -
26/07:30am 9.7 SSE 9 10 1020.0 - 3.0 - Partly cloudy 10 - - - -
26/07:00am 9.5 SSE 7 9 1019.9 - 3.0 - Partly cloudy 10 - - - -
26/06:30am 9.4 S 7 8 1019.7 - 3.0 - Partly cloudy 10 - - - -
26/06:00am 9.5 S 5 7 1019.6 - 3.0 - Cloudy 10 - - - -
26/05:30am 9.7 S 8 10 1019.2 - 3.0 - Cloudy 10 - - - -
26/05:00am 9.7 SSE 7 9 1019.1 - 3.0 - Partly cloudy 10 - - - -
26/04:30am 9.5 S 6 9 1018.9 - 3.0 - Partly cloudy 10 - - - -
26/04:00am 9.4 S 7 9 1018.7 - 3.0 - Partly cloudy 10 - - - -
26/03:30am 9.7 SSE 7 9 1018.8 - 3.0 - Partly cloudy 10 - - - -
26/03:00am 9.6 S 6 8 1018.9 - 3.0 - Cloudy 10 - - - -
26/02:30am 9.4 SSW 5 7 1018.8 - 3.0 - Partly cloudy 10 - - - -
26/02:00am 9.5 SSE 7 9 1018.7 - 3.0 - Partly cloudy 10 - - - -
26/01:30am 9.8 S 5 6 1018.6 - 3.0 - Partly cloudy 10 - - - -
26/01:00am 9.9 S 7 8 1018.7 - 3.0 - Partly cloudy 10 - - - -
26/12:30am 9.9 S 5 6 1018.7 - 3.0 - Partly cloudy 10 - - - -
26/12:00am 9.9 S 7 9 1018.7 - 3.0 - Cloudy 10 - - - -
 
Date/Time
EST
Temp

°C
Wind Pressure Rain
since 9am
mm
Weather Cloud Vis
km
Sea
Height
m
Swell
Dir
 
Speed
knots
Gust
knots
hPa Trend Height
m
Period
s
Dir
25/11:30pm 10.1 S 8 10 1018.8 - 3.0 - Partly cloudy 10 - - - -
25/11:00pm 10.1 S 6 8 1018.8 - 3.0 - Partly cloudy 10 - - - -
25/10:30pm 10.4 ENE 1 4 1018.8 - 3.0 - Partly cloudy 10 - - - -
25/10:00pm 10.5 SSE 5 7 1018.6 - 3.0 - Cloudy 10 - - - -
25/09:30pm 10.8 SSE 7 8 1018.7 - 3.0 - Partly cloudy 10 - - - -
25/09:00pm 10.9 SSE 5 6 1018.6 - 3.0 Showers Cloudy 10 - - - -
25/08:30pm 11.0 SSE 5 7 1018.5 - 2.8 - Partly cloudy 10 - - - -
25/08:00pm 11.4 ESE 4 5 1018.4 - 2.6 - Partly cloudy 10 - - - -
25/07:30pm 11.3 NE 11 12 1018.3 - 2.2 - Partly cloudy 10 - - - -
25/07:00pm 11.1 SE 5 6 1017.9 - 1.8 - Partly cloudy 10 - - - -
25/06:53pm 11.2 SE 4 5 1017.7 - 1.8 - Partly cloudy 10 - - - -
25/06:31pm 11.4 S 3 5 1017.6 - 1.0 - Partly cloudy 6 - - - -
25/06:30pm 11.4 S 4 6 1017.6 - 0.8 - Partly cloudy 7 - - - -
25/06:00pm 11.7 SSE 5 6 1017.3 - 0.4 - Cloudy 10 - - - -
25/05:30pm 11.9 SSE 4 5 1017.0 - 0.4 - Partly cloudy 10 - - - -
25/05:00pm 12.2 S 3 5 1016.8 - 0.4 - Partly cloudy 10 - - - -
25/04:30pm 13.0 E 5 6 1016.6 - 0.4 - Partly cloudy 10 - - - -
25/04:00pm 13.1 ENE 6 8 1016.6 - 0.4 - Partly cloudy 10 - - - -
25/03:30pm 13.3 ENE 6 8 1016.2 - 0.4 - Partly cloudy 10 - - - -
25/03:00pm 13.6 E 5 10 1016.2 - 0.4 Showers Cloudy 10 - - - -
25/02:52pm 13.4 ESE 3 5 1016.0 - 0.4 - Partly cloudy 10 - - - -
25/02:35pm 12.5 S 3 5 1016.0 - 0.2 - Partly cloudy 10 - - - -
25/02:32pm 12.5 S 3 5 1016.0 - 0.2 - Partly cloudy 10 - - - -
25/02:30pm 12.4 S 3 5 1016.0 - 0.2 - Partly cloudy 10 - - - -

Other Formats:

Comma delimited format used in spreadsheet applications
http://www.bom.gov.au/fwo/IDT60701/IDT60701.95960.axf

JavaScript Object Notation format (JSON) in row-major order
http://www.bom.gov.au/fwo/IDT60701/IDT60701.95960.json